Time;durP1;ratioP1;P1;durP2;ratioP2;P2;SDS_P1;SDS_P2;PMS_P1;PMS_P2;Temp;Humidity;BMP_temperature;BMP_pressure;BME280_temperature;BME280_humidity;BME280_pressure;Samples;Min_cycle;Max_cycle;Signal;HPM_P1;HPM_P2
2022/04/04 00:02:10;;;;;;;16.43;8.40;;;;;;;1.27;77.84;101901.69;5108225;28;20042;-54
2022/04/04 00:04:36;;;;;;;13.87;8.43;;;;;;;1.23;77.97;101897.56;5103253;28;20058;-55
2022/04/04 00:07:02;;;;;;;13.57;8.40;;;;;;;1.25;77.96;101887.88;5105539;28;20031;-54
2022/04/04 00:09:28;;;;;;;14.50;8.60;;;;;;;1.19;78.17;101892.47;5101615;28;20047;-54
2022/04/04 00:11:53;;;;;;;15.30;8.20;;;;;;;1.17;78.30;101886.47;5102358;28;20388;-54
2022/04/04 00:14:19;;;;;;;13.73;8.03;;;;;;;1.15;78.04;101877.88;5106136;28;20059;-53
2022/04/04 00:16:45;;;;;;;13.23;8.13;;;;;;;1.23;77.93;101874.03;5097840;28;20454;-55
2022/04/04 00:19:10;;;;;;;14.83;8.33;;;;;;;1.17;78.06;101870.81;5103433;28;20027;-53
2022/04/04 00:21:37;;;;;;;13.47;8.53;;;;;;;1.14;77.97;101876.16;5105846;28;20129;-54
2022/04/04 00:24:03;;;;;;;13.57;8.07;;;;;;;1.09;78.39;101872.94;5107254;28;20355;-55
2022/04/04 00:26:28;;;;;;;16.63;8.40;;;;;;;1.11;78.08;101871.09;5103526;28;20113;-54
2022/04/04 00:28:53;;;;;;;14.53;8.43;;;;;;;1.10;78.25;101863.31;5103881;28;20054;-53
2022/04/04 00:31:19;;;;;;;14.07;8.43;;;;;;;1.10;78.43;101863.31;5102805;28;20024;-55
2022/04/04 00:33:44;;;;;;;15.50;8.60;;;;;;;1.05;78.84;101856.53;5104348;28;20046;-55
2022/04/04 00:36:10;;;;;;;14.10;8.27;;;;;;;1.05;78.69;101850.50;5105318;28;20028;-55
2022/04/04 00:38:35;;;;;;;14.83;9.17;;;;;;;1.09;78.26;101851.19;5106793;28;20034;-53
2022/04/04 00:41:07;;;;;;;18.53;8.60;;;;;;;1.06;78.57;101846.97;5102987;28;20035;-53
2022/04/04 00:43:33;;;;;;;18.08;8.82;;;;;;;1.06;78.10;101852.19;5106546;28;20449;-54
2022/04/04 00:45:59;;;;;;;16.50;8.97;;;;;;;1.00;78.29;101842.88;5110376;28;20062;-54
2022/04/04 00:48:25;;;;;;;13.73;8.87;;;;;;;0.97;78.65;101836.94;5111961;28;20042;-54
2022/04/04 00:50:50;;;;;;;18.07;9.37;;;;;;;1.00;78.42;101836.81;5111970;28;20518;-54
2022/04/04 00:53:15;;;;;;;18.17;9.30;;;;;;;0.99;78.55;101835.13;5102470;28;20019;-53
2022/04/04 00:55:41;;;;;;;14.97;9.13;;;;;;;0.94;78.64;101828.34;5108465;28;20027;-53
2022/04/04 00:58:06;;;;;;;16.07;9.40;;;;;;;0.97;78.71;101826.50;5101138;28;20549;-56
2022/04/04 01:00:32;;;;;;;16.60;9.53;;;;;;;0.90;78.72;101824.19;5110372;28;20032;-52
2022/04/04 01:02:57;;;;;;;16.53;9.30;;;;;;;0.94;78.47;101817.88;5105863;28;20032;-53
2022/04/04 01:05:22;;;;;;;17.10;9.70;;;;;;;0.89;78.86;101814.66;5108808;28;20032;-54
2022/04/04 01:07:47;;;;;;;17.33;9.60;;;;;;;0.91;78.90;101818.06;5101814;28;20039;-54
2022/04/04 01:10:13;;;;;;;14.33;9.70;;;;;;;0.86;79.25;101801.75;5108644;28;20043;-54
2022/04/04 01:12:50;;;;;;;18.30;9.70;;;;;;;0.89;79.13;101798.97;5103311;28;20047;-53
2022/04/04 01:15:15;;;;;;;17.90;9.83;;;;;;;0.85;78.90;101802.69;5105968;28;20023;-54
2022/04/04 01:17:40;;;;;;;16.40;10.43;;;;;;;0.83;78.78;101794.06;5114346;28;20031;-54
2022/04/04 01:20:06;;;;;;;15.30;9.70;;;;;;;0.82;79.28;101789.75;5101284;28;20419;-52
2022/04/04 01:22:32;;;;;;;17.80;10.30;;;;;;;0.85;78.69;101787.00;5113363;28;20047;-53
2022/04/04 01:24:59;;;;;;;17.93;9.70;;;;;;;0.84;78.44;101780.06;5111851;28;20101;-52
2022/04/04 01:27:24;;;;;;;14.73;9.73;;;;;;;0.82;78.92;101776.69;5108925;28;20063;-54
2022/04/04 01:29:50;;;;;;;15.10;9.30;;;;;;;0.85;78.47;101773.97;5104311;28;20143;-52
2022/04/04 01:32:15;;;;;;;19.03;9.83;;;;;;;0.82;78.10;101761.03;5114124;28;20472;-51
2022/04/04 01:34:40;;;;;;;15.13;9.13;;;;;;;0.84;78.67;101761.78;5110531;28;20058;-55
2022/04/04 01:37:06;;;;;;;15.70;9.80;;;;;;;0.82;78.63;101750.59;5108858;28;20031;-53
2022/04/04 01:39:32;;;;;;;15.93;9.47;;;;;;;0.82;78.60;101750.59;5100276;28;20085;-55
2022/04/04 01:41:57;;;;;;;16.37;9.60;;;;;;;0.87;77.63;101743.38;5114227;28;20165;-51
2022/04/04 01:44:22;;;;;;;16.87;9.50;;;;;;;0.87;78.14;101747.75;5109508;28;20074;-53
2022/04/04 01:46:47;;;;;;;16.87;9.23;;;;;;;0.85;78.16;101733.94;5107214;28;20070;-54
2022/04/04 01:49:13;;;;;;;17.30;9.30;;;;;;;0.86;77.85;101731.25;5108218;28;20450;-55
2022/04/04 01:51:39;;;;;;;17.37;9.77;;;;;;;0.86;77.44;101731.25;5113347;28;20474;-54
2022/04/04 01:54:05;;;;;;;16.63;9.50;;;;;;;0.86;77.68;101725.16;5108023;27;20043;-54
2022/04/04 01:56:31;;;;;;;17.03;9.70;;;;;;;0.86;77.83;101720.81;5112783;28;20027;-54
2022/04/04 01:58:56;;;;;;;16.57;9.33;;;;;;;0.84;77.64;101717.41;5102910;28;20019;-53
2022/04/04 02:01:24;;;;;;;15.00;9.33;;;;;;;0.87;77.48;101706.81;5100348;28;20043;-54
2022/04/04 02:03:51;;;;;;;15.27;9.30;;;;;;;0.83;77.51;101699.22;5108799;28;20035;-54
2022/04/04 02:06:18;;;;;;;16.30;8.97;;;;;;;0.86;77.32;101693.81;5104283;28;20462;-54
2022/04/04 02:08:44;;;;;;;14.33;8.80;;;;;;;0.86;77.65;101702.53;5107009;28;20151;-54
2022/04/04 02:11:09;;;;;;;14.27;9.30;;;;;;;0.85;77.51;101698.22;5101186;28;20656;-54
2022/04/04 02:13:36;;;;;;;14.73;8.73;;;;;;;0.87;77.29;101696.38;5112223;28;20028;-53
2022/04/04 02:16:03;;;;;;;13.90;8.67;;;;;;;0.90;77.31;101688.38;5105884;28;20512;-53
2022/04/04 02:18:28;;;;;;;16.07;8.80;;;;;;;0.90;77.12;101685.75;5107896;28;20256;-53
2022/04/04 02:20:54;;;;;;;14.57;8.47;;;;;;;0.97;77.30;101677.59;5110884;28;20092;-54
2022/04/04 02:23:20;;;;;;;13.63;8.70;;;;;;;0.93;77.13;101675.16;5106156;28;20032;-53
2022/04/04 02:25:49;;;;;;;15.70;8.87;;;;;;;0.99;76.69;101675.78;5105744;28;20031;-53
2022/04/04 02:28:15;;;;;;;13.57;8.63;;;;;;;0.96;77.08;101662.88;5105779;28;20451;-49
2022/04/04 02:30:41;;;;;;;12.87;8.30;;;;;;;0.99;77.08;101660.13;5110842;28;20034;-52
2022/04/04 02:33:07;;;;;;;15.53;8.77;;;;;;;0.99;77.01;101657.50;5108061;28;20071;-54
2022/04/04 02:35:33;;;;;;;14.03;8.50;;;;;;;0.99;76.65;101649.66;5105026;28;20141;-52
2022/04/04 02:37:59;;;;;;;15.83;8.83;;;;;;;0.97;77.11;101649.75;5108258;28;20046;-54
2022/04/04 02:40:24;;;;;;;14.93;8.60;;;;;;;0.97;76.85;101646.25;5110001;28;20031;-55
2022/04/04 02:42:50;;;;;;;13.97;8.47;;;;;;;0.99;77.42;101641.81;5103381;28;20032;-53
2022/04/04 02:45:15;;;;;;;14.77;8.87;;;;;;;1.13;76.60;101638.50;5109139;28;20050;-53
2022/04/04 02:47:42;;;;;;;12.87;7.30;;;;;;;1.04;76.35;101635.44;5110680;28;20081;-53
2022/04/04 02:50:08;;;;;;;14.73;8.43;;;;;;;1.07;76.73;101618.75;5094393;28;20032;-53
2022/04/04 02:52:33;;;;;;;14.70;8.37;;;;;;;1.06;77.12;101622.28;5105162;28;20024;-52
2022/04/04 02:56:28;;;;;;;12.80;8.00;;;;;;;1.10;76.16;101618.59;5106562;28;20519;-54
2022/04/04 02:57:44;;;;;;;13.03;7.90;;;;;;;1.06;77.08;101606.63;5111435;28;20043;-54
2022/04/04 03:00:10;;;;;;;14.97;8.10;;;;;;;1.09;76.76;101611.69;5103341;28;20024;-52
2022/04/04 03:02:35;;;;;;;13.80;8.43;;;;;;;1.09;77.17;101601.25;5106115;28;20102;-51
2022/04/04 03:05:00;;;;;;;12.57;8.10;;;;;;;1.06;77.04;101591.81;5105328;28;20122;-54
2022/04/04 03:07:26;;;;;;;15.70;8.00;;;;;;;1.10;77.33;101591.63;5106810;28;20036;-52
2022/04/04 03:09:51;;;;;;;13.17;7.90;;;;;;;1.10;77.04;101582.03;5095110;28;20474;-53
2022/04/04 03:12:18;;;;;;;12.07;7.93;;;;;;;1.11;77.54;101573.25;5106690;28;20023;-55
2022/04/04 03:14:44;;;;;;;12.00;8.07;;;;;;;1.09;77.91;101577.75;5106118;28;20042;-53
2022/04/04 03:17:10;;;;;;;14.70;8.17;;;;;;;1.13;77.30;101566.19;5100776;28;20027;-54
2022/04/04 03:19:35;;;;;;;14.73;8.07;;;;;;;1.12;77.63;101559.28;5108755;28;20081;-51
2022/04/04 03:22:00;;;;;;;14.77;7.70;;;;;;;1.11;77.75;101560.19;5107067;28;20439;-54
2022/04/04 03:24:25;;;;;;;17.13;8.40;;;;;;;1.12;77.67;101559.28;5107247;28;20040;-55
2022/04/04 03:26:51;;;;;;;15.13;8.33;;;;;;;1.14;77.93;101557.41;5109484;28;20047;-54
2022/04/04 03:29:16;;;;;;;13.80;7.77;;;;;;;1.16;78.11;101545.13;5104004;28;20027;-52
2022/04/04 03:31:41;;;;;;;15.40;8.20;;;;;;;1.18;77.94;101540.66;5109465;28;20150;-53
2022/04/04 03:34:06;;;;;;;14.60;7.63;;;;;;;1.18;78.24;101552.91;5103812;28;20038;-53
2022/04/04 03:36:31;;;;;;;15.33;7.83;;;;;;;1.24;77.95;101538.66;5106326;28;20031;-52
2022/04/04 03:38:57;;;;;;;16.00;8.40;;;;;;;1.27;77.93;101535.84;5101868;28;20436;-54
2022/04/04 03:41:22;;;;;;;13.37;8.03;;;;;;;1.37;77.30;101526.59;5097329;28;20024;-54
2022/04/04 03:43:47;;;;;;;13.63;7.60;;;;;;;1.33;77.41;101515.47;5110962;28;20074;-54
2022/04/04 03:46:13;;;;;;;14.53;8.30;;;;;;;1.28;77.86;101514.03;5110845;28;20407;-53
2022/04/04 03:48:38;;;;;;;12.07;7.43;;;;;;;1.34;77.64;101516.31;5106832;28;20063;-53
2022/04/04 03:51:04;;;;;;;13.20;7.87;;;;;;;1.30;78.23;101506.94;5107657;28;20028;-53
2022/04/04 03:53:29;;;;;;;14.63;8.13;;;;;;;1.37;77.88;101505.69;5094630;28;20032;-52
2022/04/04 03:55:54;;;;;;;12.87;8.10;;;;;;;1.34;78.28;101503.25;5106139;28;20343;-52
2022/04/04 03:58:20;;;;;;;14.53;8.00;;;;;;;1.36;78.41;101493.53;5098556;28;20032;-54
2022/04/04 04:00:46;;;;;;;13.87;7.57;;;;;;;1.41;77.95;101498.50;5103215;28;20035;-54
2022/04/04 04:03:11;;;;;;;13.53;8.07;;;;;;;1.40;78.77;101489.84;5101545;28;20423;-55
2022/04/04 04:05:37;;;;;;;15.83;8.17;;;;;;;1.45;78.34;101482.59;5123129;27;20036;-55
2022/04/04 04:08:03;;;;;;;14.67;8.40;;;;;;;1.41;77.95;101485.44;5102619;28;20042;-53
2022/04/04 04:10:28;;;;;;;16.43;8.67;;;;;;;1.41;78.63;101475.84;5101131;27;20534;-54
2022/04/04 04:12:53;;;;;;;15.00;8.10;;;;;;;1.51;78.23;101480.53;5110559;28;20377;-53
2022/04/04 04:15:24;;;;;;;14.50;7.70;;;;;;;1.51;78.59;101475.31;5106544;28;20023;-55
2022/04/04 04:17:52;;;;;;;14.73;8.37;;;;;;;1.48;78.31;101466.72;5100886;28;20135;-54
2022/04/04 04:20:20;;;;;;;13.70;8.87;;;;;;;1.51;78.91;101462.25;5104901;28;20031;-52
2022/04/04 04:22:52;;;;;;;16.07;8.67;;;;;;;1.55;78.45;101441.09;5099388;28;20035;-53
2022/04/04 04:25:19;;;;;;;15.13;8.77;;;;;;;1.57;78.48;101454.03;5097527;28;20024;-53
2022/04/04 04:27:46;;;;;;;16.73;8.73;;;;;;;1.60;78.62;101448.66;5105387;28;20137;-54
2022/04/04 04:30:13;;;;;;;17.40;9.10;;;;;;;1.64;78.42;101446.72;5097057;28;20035;-54
2022/04/04 04:32:41;;;;;;;15.77;8.90;;;;;;;1.63;78.81;101439.81;5107790;28;20384;-53
2022/04/04 04:35:08;;;;;;;15.23;9.10;;;;;;;1.63;79.01;101443.25;5110266;28;20035;-55
2022/04/04 04:37:33;;;;;;;17.63;9.53;;;;;;;1.67;78.83;101436.09;5101716;28;20100;-55
2022/04/04 04:39:58;;;;;;;16.40;9.67;;;;;;;1.68;78.38;101425.50;5102558;28;20032;-53
2022/04/04 04:42:24;;;;;;;17.50;9.20;;;;;;;1.68;78.99;101420.28;5098167;28;20062;-53
2022/04/04 04:44:49;;;;;;;17.10;8.60;;;;;;;1.70;78.65;101410.59;5106131;28;20027;-54
2022/04/04 04:47:17;;;;;;;17.07;9.57;;;;;;;1.81;78.58;101407.34;5107884;28;20040;-55
2022/04/04 04:49:42;;;;;;;18.97;9.23;;;;;;;1.84;78.03;101398.47;5108827;28;20024;-54
2022/04/04 04:52:08;;;;;;;19.53;9.30;;;;;;;1.77;78.82;101402.41;5104599;28;20039;-54
2022/04/04 04:54:33;;;;;;;19.93;9.83;;;;;;;1.81;78.68;101406.50;5104794;28;20474;-53
2022/04/04 04:56:58;;;;;;;18.30;9.63;;;;;;;1.88;78.38;101400.00;5103215;28;20050;-54
2022/04/04 04:59:24;;;;;;;16.43;9.43;;;;;;;1.90;78.65;101389.41;5098277;28;20027;-55
2022/04/04 05:01:49;;;;;;;20.80;9.87;;;;;;;1.86;78.31;101388.75;5105762;28;20524;-52
2022/04/04 05:04:14;;;;;;;17.97;9.57;;;;;;;1.93;78.36;101387.47;5103186;28;20077;-55
2022/04/04 05:06:40;;;;;;;14.93;9.40;;;;;;;1.89;78.87;101375.53;5105621;28;20059;-55
2022/04/04 05:09:06;;;;;;;21.30;10.27;;;;;;;1.90;78.67;101377.19;5101075;28;20039;-53
2022/04/04 05:11:31;;;;;;;18.17;9.50;;;;;;;1.92;78.82;101364.84;5108395;28;20058;-55
2022/04/04 05:13:56;;;;;;;16.27;9.80;;;;;;;1.89;78.73;101370.28;5107446;28;20065;-54
2022/04/04 05:16:28;;;;;;;19.70;9.87;;;;;;;1.91;78.85;101357.94;5107313;28;20032;-55
2022/04/04 05:18:53;;;;;;;17.33;9.57;;;;;;;2.00;78.47;101352.19;5104270;28;20038;-54
2022/04/04 05:21:18;;;;;;;15.87;9.67;;;;;;;1.97;79.00;101347.13;5099442;28;20024;-56
2022/04/04 05:23:47;;;;;;;17.73;10.20;;;;;;;2.00;78.69;101340.84;5100665;28;20077;-56
2022/04/04 05:26:13;;;;;;;16.53;10.00;;;;;;;2.01;79.23;101338.16;5096654;28;20031;-54
2022/04/04 05:28:38;;;;;;;15.50;9.83;;;;;;;2.03;78.93;101329.38;5099576;28;20035;-55
2022/04/04 05:31:05;;;;;;;18.80;10.93;;;;;;;2.06;78.59;101323.97;5107047;28;20099;-55
2022/04/04 05:33:30;;;;;;;23.63;11.47;;;;;;;2.05;79.30;101317.03;5105223;28;20060;-56
2022/04/04 05:35:56;;;;;;;19.90;12.00;;;;;;;2.08;79.28;101322.09;5104500;28;21612;-54
2022/04/04 05:38:21;;;;;;;19.43;12.20;;;;;;;2.11;78.82;101314.03;5099455;28;20578;-54
2022/04/04 05:40:46;;;;;;;21.20;12.37;;;;;;;2.13;78.73;101309.56;5105499;28;20032;-54
2022/04/04 05:43:12;;;;;;;18.63;11.80;;;;;;;2.13;79.28;101309.56;5105697;28;20104;-56
2022/04/04 05:45:39;;;;;;;18.10;11.60;;;;;;;2.19;79.02;101306.56;5109056;28;20043;-55
2022/04/04 05:48:05;;;;;;;20.57;11.60;;;;;;;2.22;78.74;101303.75;5110315;28;20026;-54
2022/04/04 05:50:31;;;;;;;17.77;10.77;;;;;;;2.24;78.24;101301.91;5101113;28;20027;-55
2022/04/04 05:52:57;;;;;;;18.80;11.57;;;;;;;2.27;78.21;101288.59;5110898;28;20156;-54
2022/04/04 05:55:22;;;;;;;17.40;10.53;;;;;;;2.35;78.05;101297.75;5104297;28;20020;-55
2022/04/04 05:57:47;;;;;;;16.73;10.67;;;;;;;2.35;78.15;101297.75;5104838;28;20138;-54
2022/04/04 06:00:14;;;;;;;21.20;10.70;;;;;;;2.38;78.21;101287.09;5101017;28;20034;-56
2022/04/04 06:02:41;;;;;;;19.63;10.97;;;;;;;2.40;77.59;101278.22;5103294;28;20034;-55
2022/04/04 06:05:08;;;;;;;16.70;10.67;;;;;;;2.43;77.67;101271.94;5105589;28;20036;-58
2022/04/04 06:07:35;;;;;;;20.50;10.30;;;;;;;2.49;77.30;101279.41;5102515;28;20055;-54
2022/04/04 06:10:01;;;;;;;16.43;10.40;;;;;;;2.52;77.31;101268.72;5099564;28;20043;-56
2022/04/04 06:12:27;;;;;;;19.17;10.63;;;;;;;2.70;76.15;101281.56;5102915;28;20020;-55
2022/04/04 06:14:52;;;;;;;17.97;10.33;;;;;;;2.76;75.41;101265.47;5095959;28;20039;-54
2022/04/04 06:17:18;;;;;;;18.37;10.70;;;;;;;2.67;76.39;101261.66;5103800;28;20074;-50
2022/04/04 06:19:43;;;;;;;20.03;11.20;;;;;;;2.66;76.17;101253.94;5107327;28;20043;-53
2022/04/04 06:22:09;;;;;;;16.80;10.47;;;;;;;2.74;75.84;101262.13;5101761;28;20054;-54
2022/04/04 06:24:35;;;;;;;16.17;10.13;;;;;;;2.86;75.20;101254.41;5104167;28;20024;-53
2022/04/04 06:27:04;;;;;;;18.27;10.47;;;;;;;2.79;75.88;101233.84;5098541;28;20028;-54
2022/04/04 06:29:29;;;;;;;18.47;11.33;;;;;;;2.80;75.92;101251.22;5104579;28;20453;-54
2022/04/04 06:31:56;;;;;;;17.93;10.57;;;;;;;2.79;76.08;101239.09;5103153;28;20078;-54
2022/04/04 06:34:22;;;;;;;18.33;10.37;;;;;;;2.85;75.99;101231.78;5102084;28;20024;-54
2022/04/04 06:36:48;;;;;;;19.93;10.70;;;;;;;2.90;75.87;101237.50;5101596;28;20382;-53
2022/04/04 06:39:14;;;;;;;20.77;11.53;;;;;;;2.92;75.78;101227.78;5103628;28;20050;-54
2022/04/04 06:41:40;;;;;;;19.63;10.73;;;;;;;3.01;75.49;101227.16;5103510;28;20367;-57
2022/04/04 06:44:06;;;;;;;16.83;10.47;;;;;;;3.16;74.64;101225.31;5108630;28;20032;-55
2022/04/04 06:46:35;;;;;;;19.67;10.77;;;;;;;3.14;75.01;101218.47;5101002;28;20504;-54
2022/04/04 06:49:01;;;;;;;18.37;10.37;;;;;;;3.21;74.36;101201.44;5107068;28;20477;-56
2022/04/04 06:51:27;;;;;;;16.33;10.77;;;;;;;3.21;74.69;101196.19;5103535;28;20023;-55
2022/04/04 06:53:53;;;;;;;18.07;10.47;;;;;;;3.19;75.46;101193.66;5101620;28;20039;-54
2022/04/04 06:56:18;;;;;;;19.50;11.47;;;;;;;3.29;74.62;101204.34;5106312;28;20182;-54
2022/04/04 06:58:43;;;;;;;18.00;10.63;;;;;;;3.31;74.62;101184.09;5098320;28;20032;-53
2022/04/04 07:01:09;;;;;;;17.80;10.33;;;;;;;3.37;74.32;101185.47;5111415;28;20031;-55
2022/04/04 07:03:34;;;;;;;19.70;10.27;;;;;;;3.48;73.73;101182.09;5097897;28;20117;-55
2022/04/04 07:05:59;;;;;;;22.70;10.30;;;;;;;3.46;74.26;101178.75;5100812;28;20077;-53
2022/04/04 07:08:25;;;;;;;17.73;9.10;;;;;;;3.60;73.50;101181.25;5100943;28;20055;-54
2022/04/04 07:10:51;;;;;;;21.30;10.47;;;;;;;3.63;72.88;101170.56;5102698;28;20501;-53
2022/04/04 07:13:17;;;;;;;16.80;9.97;;;;;;;3.73;72.56;101175.13;5108268;28;20427;-53
2022/04/04 07:15:43;;;;;;;15.20;10.07;;;;;;;3.74;73.00;101161.06;5106585;28;20035;-53
2022/04/04 07:18:09;;;;;;;18.27;10.13;;;;;;;3.76;73.15;101148.72;5107335;27;20036;-53
2022/04/04 07:20:34;;;;;;;16.87;9.97;;;;;;;3.77;72.48;101151.19;5104223;28;20358;-52
2022/04/04 07:23:00;;;;;;;17.20;10.47;;;;;;;3.83;72.29;101134.19;5108979;28;20028;-54
2022/04/04 07:25:27;;;;;;;16.37;9.40;;;;;;;3.96;71.81;101128.06;5109350;28;20039;-58
2022/04/04 07:27:52;;;;;;;14.63;9.03;;;;;;;3.97;71.32;101124.50;5096730;28;20031;-58
2022/04/04 07:30:19;;;;;;;16.27;9.47;;;;;;;3.94;71.51;101127.34;5103575;28;20027;-57
2022/04/04 07:32:47;;;;;;;17.90;10.07;;;;;;;3.90;71.85;101114.44;5108933;28;20115;-56
2022/04/04 07:35:13;;;;;;;14.50;7.57;;;;;;;4.13;70.52;101125.06;5107623;28;20152;-58
2022/04/04 07:37:40;;;;;;;18.20;10.37;;;;;;;3.99;71.58;101123.44;5098837;28;20036;-57
2022/04/04 07:40:06;;;;;;;17.30;9.67;;;;;;;4.07;71.19;101120.25;5103297;28;20059;-57
2022/04/04 07:42:32;;;;;;;16.17;9.67;;;;;;;4.06;71.62;101122.97;5097194;28;20653;-57
2022/04/04 07:44:57;;;;;;;15.37;10.00;;;;;;;4.12;70.96;101123.38;5106017;28;20050;-57
2022/04/04 07:47:23;;;;;;;13.93;8.87;;;;;;;4.23;70.80;101113.88;5108674;28;20031;-57
2022/04/04 07:49:48;;;;;;;15.90;10.40;;;;;;;4.13;71.69;101104.06;5108270;28;20039;-57
2022/04/04 07:52:14;;;;;;;19.50;10.90;;;;;;;4.19;71.62;101102.75;5108587;28;20043;-56
2022/04/04 07:54:39;;;;;;;18.83;10.07;;;;;;;4.27;71.32;101100.41;5104672;28;20028;-57
2022/04/04 07:57:04;;;;;;;18.67;10.10;;;;;;;4.27;71.18;101096.94;5104951;28;20446;-57
2022/04/04 07:59:29;;;;;;;14.43;9.17;;;;;;;4.29;71.04;101074.03;5106350;28;20032;-57
2022/04/04 08:01:55;;;;;;;22.10;9.93;;;;;;;4.43;70.58;101068.59;5105632;28;20482;-56
2022/04/04 08:04:21;;;;;;;17.70;10.00;;;;;;;4.44;70.71;101067.63;5100811;28;20082;-57
2022/04/04 08:06:46;;;;;;;16.60;9.83;;;;;;;4.52;69.66;101061.81;5109251;28;20039;-57
2022/04/04 08:09:12;;;;;;;16.43;9.60;;;;;;;4.61;70.26;101062.91;5110992;28;20525;-58
2022/04/04 08:11:37;;;;;;;15.97;9.53;;;;;;;4.69;69.52;101052.63;5109753;28;20526;-57
2022/04/04 08:14:04;;;;;;;15.83;8.80;;;;;;;4.85;69.09;101056.72;5104659;28;20040;-57
2022/04/04 08:16:29;;;;;;;18.83;9.90;;;;;;;4.91;68.43;101044.88;5107946;28;20027;-53
2022/04/04 08:18:56;;;;;;;17.60;9.73;;;;;;;5.02;67.88;101049.34;5096859;28;20115;-49
2022/04/04 08:21:23;;;;;;;16.47;9.63;;;;;;;5.05;67.41;101034.16;5101551;28;20476;-50
2022/04/04 08:23:48;;;;;;;13.20;7.37;;;;;;;5.16;67.45;101033.31;5110745;28;20050;-51
2022/04/04 08:26:13;;;;;;;14.97;8.80;;;;;;;5.19;66.74;101022.53;5110258;28;20031;-49
2022/04/04 08:28:39;;;;;;;17.63;8.60;;;;;;;5.23;66.03;101029.22;5110644;28;20063;-51
2022/04/04 08:31:04;;;;;;;15.03;7.97;;;;;;;5.42;65.79;101033.00;5097760;28;20040;-50
2022/04/04 08:33:30;;;;;;;14.55;8.13;;;;;;;5.34;66.11;101014.41;5111856;28;20036;-49
2022/04/04 08:35:57;;;;;;;14.45;7.50;;;;;;;5.41;65.59;101015.56;5109140;28;20024;-52
2022/04/04 08:38:22;;;;;;;18.75;8.77;;;;;;;5.41;65.46;100999.78;5100905;28;20040;-50
2022/04/04 08:40:49;;;;;;;17.70;8.52;;;;;;;5.50;65.55;101009.56;5108393;28;20044;-50
2022/04/04 08:43:16;;;;;;;15.63;8.77;;;;;;;5.61;64.43;100978.91;5104098;28;20047;-55
2022/04/04 08:45:42;;;;;;;16.08;8.05;;;;;;;5.68;64.82;100998.53;5098216;28;20665;-56
2022/04/04 08:48:09;;;;;;;17.25;8.45;;;;;;;5.64;64.79;100995.28;5106819;28;20046;-54
2022/04/04 08:50:35;;;;;;;17.55;7.38;;;;;;;5.82;63.84;100986.84;5103876;28;20528;-56
2022/04/04 08:53:02;;;;;;;14.38;7.30;;;;;;;5.77;63.96;100987.22;5100670;28;20032;-55
2022/04/04 08:55:28;;;;;;;14.45;7.90;;;;;;;5.84;63.51;100982.31;5109577;28;20023;-56
2022/04/04 08:57:55;;;;;;;17.30;8.57;;;;;;;5.83;63.99;100977.16;5098275;28;20523;-53
2022/04/04 09:00:21;;;;;;;17.67;9.05;;;;;;;5.84;64.31;100976.19;5106055;28;20072;-54
2022/04/04 09:03:03;;;;;;;16.52;9.15;;;;;;;5.77;64.84;100979.34;5104282;28;20035;-56
2022/04/04 09:05:32;;;;;;;15.43;8.23;;;;;;;5.67;65.05;100957.34;5102967;28;20039;-51
2022/04/04 09:08:00;;;;;;;15.50;9.00;;;;;;;5.68;66.26;100964.31;5110693;28;20038;-52
2022/04/04 09:10:34;;;;;;;20.02;8.60;;;;;;;5.74;65.77;100968.22;5113499;28;20039;-54
2022/04/04 09:13:13;;;;;;;17.60;8.18;;;;;;;5.78;66.30;100967.84;5113277;28;20496;-55
2022/04/04 09:15:49;;;;;;;16.50;7.82;;;;;;;5.65;67.00;100954.03;5104818;28;20043;-55
2022/04/04 09:18:14;;;;;;;21.13;9.25;;;;;;;5.63;66.86;100961.22;5105446;28;20032;-56
2022/04/04 09:20:50;;;;;;;14.45;7.30;;;;;;;5.97;65.96;100973.38;5105674;28;20020;-54
2022/04/04 09:23:16;;;;;;;15.68;8.88;;;;;;;5.66;66.54;100953.06;5109806;28;20103;-55
2022/04/04 09:25:41;;;;;;;21.52;9.07;;;;;;;5.63;67.50;100950.69;5106727;28;20035;-55
2022/04/04 09:28:17;;;;;;;19.13;9.23;;;;;;;5.60;68.13;100950.94;5105248;28;20027;-55
2022/04/04 09:30:44;;;;;;;15.27;9.55;;;;;;;5.59;68.88;100939.59;5105861;28;20060;-54
2022/04/04 09:33:13;;;;;;;17.10;9.25;;;;;;;5.59;69.69;100938.75;5107448;28;20050;-56
2022/04/04 09:35:46;;;;;;;14.10;9.15;;;;;;;5.51;70.07;100921.81;5104107;28;20049;-56
2022/04/04 09:38:14;;;;;;;17.52;9.52;;;;;;;5.48;71.66;100931.75;5098095;28;20055;-56
2022/04/04 09:40:39;;;;;;;15.93;8.63;;;;;;;5.59;70.90;100936.13;5111760;28;20032;-55
2022/04/04 09:43:04;;;;;;;20.73;10.35;;;;;;;5.48;70.68;100939.63;5109057;28;20030;-56
2022/04/04 09:45:30;;;;;;;18.75;9.93;;;;;;;5.46;72.25;100928.38;5113083;28;20039;-56
2022/04/04 09:48:03;;;;;;;17.35;9.88;;;;;;;5.46;72.37;100921.34;5105773;28;20065;-56
2022/04/04 09:50:37;;;;;;;;;;;;;;;5.64;71.78;100926.06;5111334;28;20066;-57
2022/04/04 09:53:16;;;;;;;17.42;8.63;;;;;;;5.41;72.48;100912.16;5111309;28;19912;-57
2022/04/04 09:55:44;;;;;;;19.00;10.50;;;;;;;5.35;73.72;100921.38;5111265;28;20059;-57
2022/04/04 09:58:12;;;;;;;15.93;9.75;;;;;;;5.38;73.72;100913.25;5107653;28;20023;-57
2022/04/04 10:00:39;;;;;;;14.32;8.60;;;;;;;5.36;73.64;100909.91;5105958;28;20023;-57
2022/04/04 10:03:07;;;;;;;18.42;11.25;;;;;;;5.33;75.15;100912.81;5108749;28;20051;-57
2022/04/04 10:05:34;;;;;;;17.63;10.85;;;;;;;5.35;74.31;100905.59;5105286;28;20032;-55
2022/04/04 10:08:00;;;;;;;20.40;11.07;;;;;;;5.27;75.69;100905.41;5107829;28;20092;-53
2022/04/04 10:10:27;;;;;;;17.85;11.00;;;;;;;5.23;75.49;100902.19;5102094;28;20040;-54
2022/04/04 10:12:53;;;;;;;19.58;10.77;;;;;;;5.31;75.82;100896.28;5109191;28;20032;-55
2022/04/04 10:15:21;;;;;;;15.48;10.63;;;;;;;5.28;76.54;100893.94;5111573;28;20097;-55
2022/04/04 10:17:46;;;;;;;16.60;10.88;;;;;;;5.33;76.71;100889.13;5101573;28;20032;-56
2022/04/04 10:20:12;;;;;;;19.10;10.65;;;;;;;5.24;78.46;100883.66;5106893;28;20066;-55
2022/04/04 10:22:38;;;;;;;19.02;10.90;;;;;;;5.24;77.88;100888.91;5106064;28;20116;-54
2022/04/04 10:25:07;;;;;;;18.88;12.00;;;;;;;5.18;79.31;100889.41;5097876;28;20032;-55
2022/04/04 10:27:36;;;;;;;20.63;11.18;;;;;;;5.29;77.84;100890.34;5104475;28;20020;-55
2022/04/04 10:30:06;;;;;;;17.38;9.98;;;;;;;5.24;78.67;100894.16;5111635;28;20040;-55
2022/04/04 10:32:32;;;;;;;19.67;9.85;;;;;;;5.31;78.84;100885.78;5103994;28;20030;-56
2022/04/04 10:35:09;;;;;;;24.15;10.90;;;;;;;5.22;79.73;100885.56;5110199;28;20119;-55
2022/04/04 10:37:43;;;;;;;18.20;11.77;;;;;;;5.17;80.26;100882.47;5108568;28;20102;-53
2022/04/04 10:40:37;;;;;;;21.35;11.93;;;;;;;5.11;80.94;100882.97;5106193;28;20058;-54
2022/04/04 10:43:05;;;;;;;18.60;10.73;;;;;;;5.18;81.60;100884.16;5103157;28;20027;-55
2022/04/04 10:45:31;;;;;;;17.52;12.18;;;;;;;5.11;83.33;100877.72;5110174;28;20031;-55
2022/04/04 10:48:05;;;;;;;21.02;11.95;;;;;;;5.17;82.05;100887.75;5106527;28;20020;-55
2022/04/04 10:50:32;;;;;;;19.73;12.27;;;;;;;5.05;83.44;100883.47;5107782;28;20024;-55
2022/04/04 10:53:00;;;;;;;20.85;12.70;;;;;;;5.03;84.01;100877.53;5113195;28;20035;-53
2022/04/04 10:55:36;;;;;;;19.50;12.57;;;;;;;5.11;84.09;100880.34;5109456;28;20055;-56
2022/04/04 10:58:07;;;;;;;17.80;11.70;;;;;;;5.00;85.11;100872.50;5106545;28;20044;-53
2022/04/04 11:00:52;;;;;;;20.35;11.90;;;;;;;4.97;85.10;100861.28;5106918;28;20076;-55
2022/04/04 11:03:28;;;;;;;18.67;11.13;;;;;;;5.12;84.66;100861.00;5103432;28;20043;-55
2022/04/04 11:09:22;;;;;;;;;;;;;;;5.03;84.23;100848.59;5110976;28;20050;-57
2022/04/04 11:12:14;;;;;;;18.10;11.10;;;;;;;5.31;84.90;100843.69;5076731;28;20380;-55
2022/04/04 11:14:42;;;;;;;14.82;8.65;;;;;;;5.06;85.58;100848.34;5106757;28;20093;-55
2022/04/04 11:17:11;;;;;;;15.18;9.02;;;;;;;5.04;86.18;100843.22;5106009;28;20032;-55
2022/04/04 11:20:13;;;;;;;14.70;9.70;;;;;;;4.98;86.06;100841.94;5103665;28;20031;-53
2022/04/04 11:22:46;;;;;;;20.83;11.73;;;;;;;4.91;86.74;100839.91;5111110;28;20055;-56
2022/04/04 11:25:17;;;;;;;16.00;10.10;;;;;;;4.94;86.69;100839.69;5100863;28;20020;-52
2022/04/04 11:27:48;;;;;;;17.10;10.80;;;;;;;5.03;85.77;100824.97;5102458;28;20024;-53